createdAt,value
2022-12-15T00:00:19.650Z,7.35
2022-12-15T00:03:05.518Z,8.18
2022-12-15T00:05:51.198Z,8.63
2022-12-15T00:08:36.928Z,6.45
2022-12-15T00:11:22.565Z,5.68
2022-12-15T00:14:08.259Z,7.13
2022-12-15T00:16:54.220Z,7.90
2022-12-15T00:19:39.741Z,6.97
2022-12-15T00:22:25.826Z,6.97
2022-12-15T00:25:11.403Z,7.65
2022-12-15T00:27:58.030Z,7.00
2022-12-15T00:30:43.449Z,5.88
2022-12-15T00:33:30.863Z,7.55
2022-12-15T00:36:17.693Z,9.82
2022-12-15T00:38:45.629Z,6.57
2022-12-15T00:41:15.699Z,7.05
2022-12-15T00:43:43.224Z,9.48
2022-12-15T00:46:29.306Z,8.73
2022-12-15T00:48:56.816Z,7.65
2022-12-15T00:51:43.240Z,6.88
2022-12-15T00:54:29.480Z,9.02
2022-12-15T00:57:15.168Z,6.75
2022-12-15T01:00:00.940Z,7.35
2022-12-15T01:02:46.706Z,7.28
2022-12-15T01:05:32.786Z,8.32
2022-12-15T01:08:19.177Z,8.85
2022-12-15T01:11:05.053Z,7.53
2022-12-15T01:13:50.712Z,8.23
2022-12-15T01:16:36.235Z,6.20
2022-12-15T01:19:21.685Z,7.35
2022-12-15T01:21:49.935Z,6.32
2022-12-15T01:24:17.257Z,8.60
2022-12-15T01:29:11.041Z,6.85
2022-12-15T01:31:38.048Z,7.13
2022-12-15T01:36:32.222Z,6.72
2022-12-15T01:38:59.191Z,7.63
2022-12-15T01:41:26.259Z,6.22
2022-12-15T01:46:22.491Z,8.73
2022-12-15T01:48:58.186Z,8.35
2022-12-15T01:51:39.755Z,8.40
2022-12-15T01:54:28.313Z,8.43
2022-12-15T01:57:00.031Z,7.10
2022-12-15T01:59:33.116Z,7.63
2022-12-15T02:02:00.636Z,8.90
2022-12-15T02:04:28.120Z,9.43
2022-12-15T02:06:55.045Z,8.55
2022-12-15T02:09:25.541Z,9.27
2022-12-15T02:12:35.093Z,9.68
2022-12-15T02:18:05.017Z,8.52
2022-12-15T02:20:58.352Z,8.07
2022-12-15T02:23:46.838Z,8.52
2022-12-15T02:29:17.309Z,7.82
2022-12-15T02:31:54.030Z,9.90
2022-12-15T02:34:45.733Z,8.33
2022-12-15T02:37:20.891Z,10.55
2022-12-15T02:39:47.831Z,10.15
2022-12-15T02:42:14.897Z,9.20
2022-12-15T02:45:05.974Z,9.68
2022-12-15T02:47:46.334Z,8.55
2022-12-15T02:50:24.411Z,10.23
2022-12-15T02:53:13.270Z,7.93
2022-12-15T02:56:02.120Z,10.10
2022-12-15T02:58:36.691Z,6.15
2022-12-15T03:01:30.953Z,8.70
2022-12-15T03:04:02.182Z,8.60
2022-12-15T03:06:29.356Z,10.18
2022-12-15T03:11:23.268Z,8.95
2022-12-15T03:16:17.720Z,10.98
2022-12-15T03:18:44.826Z,8.93
2022-12-15T03:23:38.765Z,9.07
2022-12-15T03:26:06.713Z,9.25
2022-12-15T03:28:34.479Z,9.98
2022-12-15T03:31:01.632Z,9.68
2022-12-15T03:35:56.137Z,11.23
2022-12-15T03:38:23.106Z,9.55
2022-12-15T03:40:50.221Z,10.05
2022-12-15T03:43:17.446Z,9.75
2022-12-15T03:45:44.505Z,9.77
2022-12-15T03:50:38.344Z,7.25
2022-12-15T03:53:05.686Z,11.15
2022-12-15T03:55:33.440Z,8.73
2022-12-15T03:58:00.750Z,9.45
2022-12-15T04:00:29.037Z,8.68
2022-12-15T04:02:56.316Z,9.95
2022-12-15T04:05:25.955Z,9.07
2022-12-15T04:07:54.307Z,8.57
2022-12-15T04:10:22.271Z,9.27
2022-12-15T04:12:49.612Z,9.02
2022-12-15T04:15:16.652Z,8.15
2022-12-15T04:20:11.318Z,8.57
2022-12-15T04:22:47.225Z,9.02
2022-12-15T04:25:42.146Z,8.75
2022-12-15T04:28:29.062Z,6.18
2022-12-15T04:31:28.937Z,9.32
2022-12-15T04:34:18.592Z,8.63
2022-12-15T04:37:06.869Z,9.40
2022-12-15T04:42:39.752Z,9.65
2022-12-15T04:45:27.013Z,7.63
2022-12-15T04:48:12.711Z,8.07
2022-12-15T04:50:58.547Z,9.52
2022-12-15T04:53:44.375Z,8.75
2022-12-15T04:56:32.388Z,10.48
2022-12-15T04:59:18.457Z,9.85
2022-12-15T05:02:04.520Z,9.25
2022-12-15T05:04:50.429Z,8.13
2022-12-15T05:07:36.499Z,8.85
2022-12-15T05:10:22.926Z,8.13
2022-12-15T05:13:08.718Z,8.30
2022-12-15T05:15:54.913Z,8.77
2022-12-15T05:18:40.921Z,8.70
2022-12-15T05:21:26.991Z,8.23
2022-12-15T05:24:12.918Z,8.20
2022-12-15T05:26:58.702Z,8.32
2022-12-15T05:29:44.230Z,8.68
2022-12-15T05:32:13.620Z,9.00
2022-12-15T05:34:40.740Z,10.00
2022-12-15T05:37:07.865Z,8.77
2022-12-15T05:39:35.027Z,9.55
2022-12-15T05:44:29.221Z,7.25
2022-12-15T05:46:56.764Z,11.23
2022-12-15T05:49:24.478Z,11.02
2022-12-15T05:51:51.592Z,10.15
2022-12-15T05:56:50.565Z,10.25
2022-12-15T05:59:19.280Z,9.48
2022-12-15T06:01:46.841Z,12.32
2022-12-15T06:04:14.361Z,11.70
2022-12-15T06:06:42.301Z,10.85
2022-12-15T06:09:09.899Z,10.48
2022-12-15T06:11:37.762Z,11.48
2022-12-15T06:14:05.137Z,13.10
2022-12-15T06:16:33.247Z,10.48
2022-12-15T06:19:02.107Z,11.25
2022-12-15T06:21:37.445Z,9.50
2022-12-15T06:24:06.728Z,12.70
2022-12-15T06:26:36.981Z,11.93
2022-12-15T06:29:06.244Z,11.88
2022-12-15T06:31:34.080Z,12.68
2022-12-15T06:34:04.972Z,11.85
2022-12-15T06:36:32.329Z,10.52
2022-12-15T06:39:00.978Z,9.85
2022-12-15T06:41:30.481Z,13.63
2022-12-15T06:43:58.763Z,14.13
2022-12-15T06:46:28.127Z,11.43
2022-12-15T06:48:55.754Z,11.93
2022-12-15T06:51:23.179Z,13.10
2022-12-15T06:53:54.056Z,12.45
2022-12-15T06:56:27.272Z,9.95
2022-12-15T06:58:59.720Z,12.07
2022-12-15T07:01:27.669Z,10.90
2022-12-15T07:03:55.795Z,11.02
2022-12-15T07:06:23.426Z,10.82
2022-12-15T07:08:52.989Z,13.25
2022-12-15T07:11:21.229Z,13.10
2022-12-15T07:13:53.095Z,11.25
2022-12-15T07:16:21.993Z,11.48
2022-12-15T07:18:49.421Z,12.45
2022-12-15T07:21:17.121Z,10.55
2022-12-15T07:24:00.940Z,13.23
2022-12-15T07:26:28.951Z,12.07
2022-12-15T07:28:56.767Z,12.63
2022-12-15T07:31:24.380Z,9.68
2022-12-15T07:33:52.813Z,11.70
2022-12-15T07:36:20.394Z,10.60
2022-12-15T07:38:50.284Z,11.80
2022-12-15T07:41:19.801Z,12.40
2022-12-15T07:44:06.464Z,10.90
2022-12-15T07:46:36.597Z,9.68
2022-12-15T07:49:03.777Z,9.55
2022-12-15T07:51:30.946Z,12.65
2022-12-15T07:53:58.139Z,10.50
2022-12-15T07:58:52.200Z,9.05
2022-12-15T08:01:19.378Z,10.80
2022-12-15T08:03:46.703Z,10.70
2022-12-15T08:06:15.360Z,9.52
2022-12-15T08:08:44.780Z,11.07
2022-12-15T08:11:17.048Z,13.00
2022-12-15T08:16:34.552Z,8.80
2022-12-15T08:19:02.170Z,11.35
2022-12-15T08:21:31.393Z,11.15
2022-12-15T08:23:58.470Z,10.52
2022-12-15T08:26:30.348Z,13.40
2022-12-15T08:29:24.473Z,13.27
2022-12-15T08:31:48.023Z,11.77
2022-12-15T08:34:15.105Z,11.38
2022-12-15T08:36:42.306Z,9.73
2022-12-15T08:39:09.684Z,12.43
2022-12-15T08:44:04.263Z,13.55
2022-12-15T08:46:36.466Z,11.43
2022-12-15T08:49:04.387Z,9.60
2022-12-15T08:51:33.000Z,12.10
2022-12-15T08:54:01.324Z,11.57
2022-12-15T08:56:30.015Z,10.07
2022-12-15T08:58:59.276Z,12.20
2022-12-15T09:01:27.877Z,11.73
2022-12-15T09:03:56.651Z,10.55
2022-12-15T09:06:29.469Z,11.27
2022-12-15T09:08:59.210Z,10.23
2022-12-15T09:11:27.780Z,11.55
2022-12-15T09:13:54.913Z,10.75
2022-12-15T09:18:55.653Z,12.02
2022-12-15T09:21:26.385Z,10.40
2022-12-15T09:23:55.560Z,9.02
2022-12-15T09:26:23.903Z,9.68
2022-12-15T09:28:51.813Z,10.63
2022-12-15T09:31:22.516Z,11.88
2022-12-15T09:33:52.688Z,10.40
2022-12-15T09:36:21.091Z,9.98
2022-12-15T09:38:48.475Z,8.15
2022-12-15T09:41:15.419Z,10.13
2022-12-15T09:46:30.742Z,9.38
2022-12-15T09:49:03.308Z,9.45
2022-12-15T09:51:39.791Z,9.25
2022-12-15T09:54:08.741Z,9.55
2022-12-15T09:56:54.721Z,8.20
2022-12-15T09:59:41.730Z,10.02
2022-12-15T10:02:28.064Z,9.98
2022-12-15T10:05:16.212Z,10.95
2022-12-15T10:07:46.601Z,13.05
2022-12-15T10:10:40.698Z,10.63
2022-12-15T10:13:18.214Z,11.48
2022-12-15T10:19:09.994Z,13.30
2022-12-15T10:21:37.279Z,13.25
2022-12-15T10:25:07.872Z,11.52
2022-12-15T10:27:46.706Z,9.25
2022-12-15T10:30:16.566Z,10.60
2022-12-15T10:32:52.014Z,10.52
2022-12-15T10:35:34.217Z,10.23
2022-12-15T10:38:06.571Z,10.98
2022-12-15T10:40:52.001Z,12.88
2022-12-15T10:43:41.066Z,11.20
2022-12-15T10:46:23.037Z,11.20
2022-12-15T10:48:52.983Z,12.68
2022-12-15T10:51:32.793Z,12.00
2022-12-15T10:54:13.470Z,12.07
2022-12-15T10:56:55.587Z,13.32
2022-12-15T10:59:31.988Z,10.35
2022-12-15T11:02:23.968Z,12.73
2022-12-15T11:05:18.481Z,10.10
2022-12-15T11:07:52.017Z,13.02
2022-12-15T11:10:29.990Z,13.48
2022-12-15T11:15:45.634Z,24.08
2022-12-15T11:18:23.252Z,14.55
2022-12-15T11:21:07.892Z,17.98
2022-12-15T11:23:35.428Z,15.23
2022-12-15T11:26:22.372Z,10.02
2022-12-15T11:28:56.458Z,14.20
2022-12-15T11:31:51.331Z,13.65
2022-12-15T11:34:25.070Z,14.52
2022-12-15T11:37:01.381Z,14.93
2022-12-15T11:39:55.058Z,13.35
2022-12-15T11:42:56.364Z,13.48
2022-12-15T11:45:37.716Z,13.88
2022-12-15T11:48:07.759Z,12.98
2022-12-15T11:50:37.430Z,12.25
2022-12-15T11:53:20.095Z,13.13
2022-12-15T11:55:49.778Z,11.13
2022-12-15T11:58:32.582Z,10.85
2022-12-15T12:01:03.453Z,14.18
2022-12-15T12:04:05.583Z,14.45
2022-12-15T12:07:17.492Z,13.00
2022-12-15T12:09:56.434Z,12.18
2022-12-15T12:12:43.988Z,12.50
2022-12-15T12:15:41.726Z,15.13
2022-12-15T12:18:27.464Z,13.27
2022-12-15T12:21:21.361Z,12.52
2022-12-15T12:23:52.488Z,15.30
2022-12-15T12:27:02.924Z,13.95
2022-12-15T12:30:14.552Z,13.90
2022-12-15T12:32:54.502Z,14.73
2022-12-15T12:35:50.758Z,10.48
2022-12-15T12:38:25.190Z,13.48
2022-12-15T12:41:02.788Z,11.00
2022-12-15T12:43:36.838Z,11.93
2022-12-15T12:46:25.757Z,12.77
2022-12-15T12:49:04.940Z,12.18
2022-12-15T12:51:35.804Z,11.57
2022-12-15T12:54:30.992Z,13.88
2022-12-15T12:56:58.665Z,15.43
2022-12-15T12:59:29.051Z,14.25
2022-12-15T13:01:58.074Z,12.63
2022-12-15T13:04:33.910Z,12.25
2022-12-15T13:07:02.428Z,13.43
2022-12-15T13:09:44.952Z,10.98
2022-12-15T13:12:52.879Z,14.38
2022-12-15T13:15:42.595Z,12.65
2022-12-15T13:18:22.767Z,11.07
2022-12-15T13:20:58.252Z,12.05
2022-12-15T13:23:27.391Z,11.98
2022-12-15T13:25:57.311Z,13.27
2022-12-15T13:28:30.727Z,12.68
2022-12-15T13:31:17.077Z,12.00
2022-12-15T13:33:53.046Z,11.50
2022-12-15T13:36:38.527Z,12.57
2022-12-15T13:39:28.340Z,13.30
2022-12-15T13:44:51.685Z,13.25
2022-12-15T13:47:30.221Z,11.95
2022-12-15T13:50:14.801Z,11.95
2022-12-15T13:53:17.401Z,13.27
2022-12-15T13:55:52.735Z,8.57
2022-12-15T13:58:21.955Z,12.18
2022-12-15T14:00:54.851Z,9.85
2022-12-15T14:03:22.434Z,11.02
2022-12-15T14:05:56.831Z,11.68
2022-12-15T14:08:28.595Z,9.80
2022-12-15T14:11:06.948Z,10.15
2022-12-15T14:16:22.449Z,9.10
2022-12-15T14:19:20.281Z,11.45
2022-12-15T14:21:57.965Z,9.93
2022-12-15T14:27:24.467Z,11.38
2022-12-15T14:30:29.596Z,11.48
2022-12-15T14:33:18.526Z,12.10
2022-12-15T14:35:55.544Z,9.48
2022-12-15T14:38:31.364Z,8.63
2022-12-15T14:41:02.091Z,10.25
2022-12-15T14:43:33.880Z,11.32
2022-12-15T14:46:11.886Z,9.70
2022-12-15T14:51:17.571Z,8.45
2022-12-15T14:53:49.677Z,11.20
2022-12-15T14:56:25.712Z,10.45
2022-12-15T14:59:04.982Z,10.50
2022-12-15T15:01:42.291Z,10.60
2022-12-15T15:04:29.587Z,10.82
2022-12-15T15:07:00.250Z,10.43
2022-12-15T15:09:33.501Z,9.95
2022-12-15T15:12:08.061Z,12.40
2022-12-15T15:14:43.790Z,9.18
2022-12-15T15:17:14.858Z,10.45
2022-12-15T15:19:49.565Z,10.90
2022-12-15T15:22:42.460Z,11.15
2022-12-15T15:25:22.302Z,8.43
2022-12-15T15:27:50.004Z,9.43
2022-12-15T15:30:21.025Z,12.45
2022-12-15T15:32:55.706Z,11.00
2022-12-15T15:35:25.321Z,12.57
2022-12-15T15:37:59.379Z,9.93
2022-12-15T15:40:27.499Z,11.95
2022-12-15T15:42:55.676Z,8.77
2022-12-15T15:45:23.443Z,9.25
2022-12-15T15:47:52.747Z,8.82
2022-12-15T15:50:29.227Z,9.50
2022-12-15T15:52:57.444Z,10.68
2022-12-15T15:55:37.831Z,10.55
2022-12-15T15:58:11.401Z,9.60
2022-12-15T16:00:38.877Z,9.05
2022-12-15T16:03:06.588Z,9.00
2022-12-15T16:05:37.344Z,10.35
2022-12-15T16:08:05.532Z,11.50
2022-12-15T16:10:32.882Z,10.85
2022-12-15T16:13:03.392Z,12.32
2022-12-15T16:15:31.889Z,11.73
2022-12-15T16:18:03.914Z,11.80
2022-12-15T16:20:31.039Z,10.50
2022-12-15T16:25:59.279Z,10.43
2022-12-15T16:28:31.517Z,11.32
2022-12-15T16:30:59.485Z,11.50
2022-12-15T16:33:26.987Z,9.60
2022-12-15T16:35:54.785Z,9.80
2022-12-15T16:38:28.465Z,9.57
2022-12-15T16:40:57.307Z,9.48
2022-12-15T16:43:31.456Z,12.93
2022-12-15T16:46:03.644Z,12.18
2022-12-15T16:48:31.426Z,12.45
2022-12-15T16:50:59.624Z,9.35
2022-12-15T16:53:30.481Z,9.48
2022-12-15T16:55:59.825Z,11.48
2022-12-15T16:58:28.866Z,9.20
2022-12-15T17:00:56.437Z,10.30
2022-12-15T17:03:26.161Z,11.35
2022-12-15T17:05:56.329Z,12.93
2022-12-15T17:08:27.531Z,7.55
2022-12-15T17:10:54.818Z,10.02
2022-12-15T17:13:26.600Z,11.90
2022-12-15T17:15:59.137Z,10.00
2022-12-15T17:18:26.574Z,10.68
2022-12-15T17:21:01.465Z,8.90
2022-12-15T17:23:29.327Z,12.05
2022-12-15T17:28:44.011Z,12.10
2022-12-15T17:31:18.803Z,10.93
2022-12-15T17:33:45.866Z,11.95
2022-12-15T17:38:42.835Z,12.18
2022-12-15T17:41:35.071Z,16.05
2022-12-15T17:44:31.543Z,12.70
2022-12-15T17:46:52.051Z,14.15
2022-12-15T17:49:20.823Z,11.05
2022-12-15T17:51:50.692Z,10.10
2022-12-15T17:54:20.128Z,10.40
2022-12-15T17:56:49.353Z,11.82
2022-12-15T17:59:20.436Z,8.60
2022-12-15T18:01:47.664Z,9.68
2022-12-15T18:04:15.401Z,12.93
2022-12-15T18:06:46.437Z,10.27
2022-12-15T18:09:16.461Z,14.07
2022-12-15T18:11:45.329Z,11.35
2022-12-15T18:14:18.355Z,9.00
2022-12-15T18:16:46.361Z,9.40
2022-12-15T18:19:16.054Z,9.60
2022-12-15T18:24:17.215Z,8.63
2022-12-15T18:26:44.622Z,11.20
2022-12-15T18:29:14.243Z,11.55
2022-12-15T18:31:42.431Z,10.43
2022-12-15T18:34:12.961Z,9.80
2022-12-15T18:36:40.299Z,12.05
2022-12-15T18:39:20.930Z,12.00
2022-12-15T18:41:48.485Z,9.82
2022-12-15T18:44:23.134Z,9.88
2022-12-15T18:46:55.095Z,10.52
2022-12-15T18:49:23.883Z,12.77
2022-12-15T18:51:51.107Z,9.50
2022-12-15T18:54:24.222Z,10.82
2022-12-15T18:56:51.734Z,10.82
2022-12-15T18:59:19.790Z,11.10
2022-12-15T19:01:48.957Z,13.48
2022-12-15T19:04:16.563Z,14.30
2022-12-15T19:06:47.847Z,13.85
2022-12-15T19:09:21.190Z,12.90
2022-12-15T19:12:15.566Z,11.45
2022-12-15T19:14:43.184Z,11.90
2022-12-15T19:17:30.553Z,14.02
2022-12-15T19:20:16.016Z,12.75
2022-12-15T19:22:44.500Z,12.82
2022-12-15T19:25:25.094Z,13.30
2022-12-15T19:28:00.066Z,12.02
2022-12-15T19:30:41.579Z,13.32
2022-12-15T19:33:11.308Z,15.07
2022-12-15T19:35:40.522Z,14.30
2022-12-15T19:38:11.251Z,14.07
2022-12-15T19:40:38.813Z,16.45
2022-12-15T19:43:07.155Z,14.25
2022-12-15T19:45:34.299Z,12.57
2022-12-15T19:48:04.541Z,15.00
2022-12-15T19:50:36.741Z,12.80
2022-12-15T19:53:10.474Z,15.45
2022-12-15T19:55:38.757Z,16.05
2022-12-15T19:58:26.952Z,12.27
2022-12-15T20:00:57.843Z,18.40
2022-12-15T20:03:26.216Z,18.05
2022-12-15T20:05:54.883Z,14.15
2022-12-15T20:08:25.773Z,15.70
2022-12-15T20:10:54.291Z,13.85
2022-12-15T20:13:22.479Z,18.75
2022-12-15T20:15:49.626Z,19.88
2022-12-15T20:20:45.717Z,18.17
2022-12-15T20:23:29.501Z,16.95
2022-12-15T20:25:57.216Z,14.50
2022-12-15T20:28:27.134Z,16.73
2022-12-15T20:30:56.324Z,16.13
2022-12-15T20:33:23.468Z,13.50
2022-12-15T20:38:21.012Z,17.00
2022-12-15T20:40:48.561Z,18.02
2022-12-15T20:43:17.859Z,18.90
2022-12-15T20:45:47.598Z,16.60
2022-12-15T20:48:15.671Z,17.73
2022-12-15T20:50:46.432Z,16.83
2022-12-15T20:53:19.757Z,16.48
2022-12-15T20:55:48.074Z,17.77
2022-12-15T20:58:16.035Z,18.20
2022-12-15T21:00:43.335Z,20.08
2022-12-15T21:03:26.473Z,20.50
2022-12-15T21:05:56.064Z,15.30
2022-12-15T21:08:26.057Z,21.23
2022-12-15T21:10:54.587Z,19.63
2022-12-15T21:13:27.438Z,17.25
2022-12-15T21:15:54.929Z,18.27
2022-12-15T21:21:18.891Z,19.85
2022-12-15T21:23:45.924Z,19.02
2022-12-15T21:26:15.833Z,15.60
2022-12-15T21:28:42.786Z,20.55
2022-12-15T21:31:10.227Z,18.80
2022-12-15T21:33:37.235Z,17.90
2022-12-15T21:36:04.623Z,15.85
2022-12-15T21:38:40.250Z,20.42
2022-12-15T21:41:16.014Z,21.65
2022-12-15T21:43:43.672Z,20.45
2022-12-15T21:46:15.190Z,19.30
2022-12-15T21:49:01.638Z,18.13
2022-12-15T21:51:39.042Z,19.38
2022-12-15T21:54:18.687Z,17.67
2022-12-15T21:56:48.190Z,16.73
2022-12-15T21:59:21.947Z,19.33
2022-12-15T22:01:49.764Z,15.90
2022-12-15T22:04:23.404Z,14.63
2022-12-15T22:06:51.115Z,17.90
2022-12-15T22:09:19.104Z,14.57
2022-12-15T22:11:48.628Z,17.27
2022-12-15T22:14:22.366Z,18.98
2022-12-15T22:16:49.809Z,18.25
2022-12-15T22:19:17.182Z,19.55
2022-12-15T22:21:44.130Z,17.95
2022-12-15T22:24:11.839Z,15.73
2022-12-15T22:26:40.273Z,17.05
2022-12-15T22:29:25.822Z,17.80
2022-12-15T22:31:52.822Z,15.90
2022-12-15T22:34:24.583Z,19.58
2022-12-15T22:36:52.099Z,18.83
2022-12-15T22:39:19.473Z,17.90
2022-12-15T22:41:50.117Z,18.45
2022-12-15T22:44:26.182Z,14.45
2022-12-15T22:46:56.342Z,17.48
2022-12-15T22:49:29.217Z,16.90
2022-12-15T22:51:56.330Z,17.25
2022-12-15T22:56:59.459Z,16.10
2022-12-15T22:59:31.937Z,18.20
2022-12-15T23:02:02.173Z,17.50
2022-12-15T23:04:30.825Z,15.80
2022-12-15T23:07:00.221Z,15.70
2022-12-15T23:09:27.177Z,18.92
2022-12-15T23:11:54.214Z,14.57
2022-12-15T23:14:44.986Z,17.88
2022-12-15T23:17:13.154Z,18.67
2022-12-15T23:19:47.099Z,16.52
2022-12-15T23:22:14.488Z,17.90
2022-12-15T23:24:41.785Z,13.32
2022-12-15T23:27:12.654Z,16.15
2022-12-15T23:29:39.947Z,14.65
2022-12-15T23:32:06.945Z,17.40
2022-12-15T23:34:35.220Z,17.05
2022-12-15T23:37:02.580Z,18.60
2022-12-15T23:39:29.685Z,17.08
2022-12-15T23:41:56.688Z,17.35
2022-12-15T23:46:50.744Z,15.63
2022-12-15T23:51:44.659Z,14.70
2022-12-15T23:54:11.619Z,14.68
2022-12-15T23:59:06.631Z,12.50
